Terminal Aerodrome Forecast
Issued by NWS Jacksonville, FL

Home | Current Version | Previous Version | Text Only | Print | Product List | Glossary On
Versions: 1 2 3 4 5 6 7 8 9 10 11 12 13
000
FTUS42 KJAX 202300 RRA
TAFJAX
TAF
KJAX 202343Z 2100/2124 04009KT P6SM BKN008 OVC080
     FM210100 02006KT P6SM OVC006
     FM210800 01005KT 5SM BR VCSH OVC005
      TEMPO 2109/2113 3SM -RA BR
     FM211500 04006KT P6SM VCSH SCT005 BKN015 OVC150=

USA.gov is the U.S. government's official web portal to all federal, state and local government web resources and services.